Ellis Grove, Illinois
Current Conditions -  °F | °C
As of 11:15 PM on Friday 28 Nov 2014 (Local Time) from KSAR Reporting Station
Clear Clear  
Wind Chill: 37°   Ceiling: Unl
Heat Index: 43°   Visibility: 10mi
Dew Point: 33°   Wind: 9mph
Humidity: 69%   Direction: 180°S
Pressure: 29.95"   Gusts: NA
Location:  38.01°N, 89.91°W
Report Text: KSAR 290515Z AUTO 18008KT 10SM CLR 06/01 A2995 RMK AO2 T00590006
Loading
Personal Weather Stations






























Interactive Weather Map New forecast layout! Learn more

10-Day Weather Forecast

Advertisements
Track Severe Weather on mobile